Time;durP1;ratioP1;P1;durP2;ratioP2;P2;SDS_P1;SDS_P2;PMS_P1;PMS_P2;Temp;Humidity;BMP_temperature;BMP_pressure;BME280_temperature;BME280_humidity;BME280_pressure;Samples;Min_cycle;Max_cycle;Signal;HPM_P1;HPM_P2
2024/02/23 00:02:17;;;;;;;0.70;0.70;;;4.90;99.90;;;;;;5113181;28;20195;-76
2024/02/23 00:04:44;;;;;;;0.65;0.65;;;4.90;99.90;;;;;;5113269;28;20184;-79
2024/02/23 00:07:10;;;;;;;0.98;0.98;;;4.80;99.90;;;;;;5113184;28;20561;-80
2024/02/23 00:09:37;;;;;;;0.70;0.70;;;4.80;99.90;;;;;;5111174;28;20199;-79
2024/02/23 00:12:07;;;;;;;0.60;0.60;;;4.80;99.90;;;;;;5113168;28;20194;-77
2024/02/23 00:14:36;;;;;;;0.70;0.70;;;4.90;99.90;;;;;;5112885;28;20284;-79
2024/02/23 00:17:06;;;;;;;0.70;0.70;;;4.80;99.90;;;;;;5113572;28;20663;-78
2024/02/23 00:19:35;;;;;;;0.55;0.55;;;4.80;99.90;;;;;;5113336;28;20191;-79
2024/02/23 00:22:04;;;;;;;0.60;0.60;;;4.80;99.90;;;;;;5112849;28;20598;-80
2024/02/23 00:24:29;;;;;;;0.70;0.70;;;4.80;99.90;;;;;;5113184;28;20219;-80
2024/02/23 00:26:58;;;;;;;0.70;0.70;;;4.80;99.90;;;;;;5112940;28;20693;-79
2024/02/23 00:29:29;;;;;;;0.55;0.55;;;4.80;99.90;;;;;;5112857;28;20198;-68
2024/02/23 00:31:55;;;;;;;1.08;0.90;;;4.80;99.90;;;;;;5097079;28;20239;-70
2024/02/23 00:34:31;;;;;;;0.88;0.88;;;4.70;99.90;;;;;;5092390;28;20223;-68
2024/02/23 00:37:07;;;;;;;0.50;0.50;;;4.80;99.90;;;;;;5092429;28;20754;-69
2024/02/23 00:39:33;;;;;;;0.60;0.60;;;4.80;99.90;;;;;;5090963;28;20645;-68
2024/02/23 00:41:59;;;;;;;0.60;0.60;;;4.80;99.90;;;;;;5094530;28;20195;-69
2024/02/23 00:44:24;;;;;;;0.70;0.70;;;4.80;99.90;;;;;;5111400;28;20191;-68
2024/02/23 00:46:50;;;;;;;0.70;0.70;;;4.80;99.90;;;;;;5111340;28;20678;-68
2024/02/23 00:49:16;;;;;;;0.80;0.80;;;4.80;99.90;;;;;;5113035;28;20676;-68
2024/02/23 00:51:43;;;;;;;0.60;0.60;;;4.80;99.90;;;;;;5111096;28;20720;-69
2024/02/23 00:54:08;;;;;;;1.10;1.00;;;4.80;99.90;;;;;;5112313;28;20331;-68
2024/02/23 00:56:35;;;;;;;0.77;0.77;;;4.80;99.90;;;;;;5111142;28;20294;-68
2024/02/23 00:59:00;;;;;;;0.70;0.70;;;4.80;99.90;;;;;;5112583;28;20656;-68
2024/02/23 01:01:29;;;;;;;0.80;0.80;;;4.80;99.90;;;;;;5112404;28;20200;-69
2024/02/23 01:03:55;;;;;;;1.25;1.15;;;4.80;99.90;;;;;;5112443;28;20196;-69
2024/02/23 01:06:20;;;;;;;0.50;0.50;;;4.80;99.90;;;;;;5112337;28;20659;-69
2024/02/23 01:08:47;;;;;;;0.90;0.90;;;4.80;99.90;;;;;;5112421;28;20263;-68
2024/02/23 01:11:12;;;;;;;0.77;0.77;;;4.80;99.90;;;;;;5112454;28;20192;-68
2024/02/23 01:13:38;;;;;;;0.77;0.77;;;4.80;99.90;;;;;;5112126;28;20231;-68
2024/02/23 01:16:04;;;;;;;1.00;1.00;;;4.70;99.90;;;;;;5112438;28;20659;-68
2024/02/23 01:18:29;;;;;;;1.52;1.42;;;4.80;99.90;;;;;;5112103;28;20210;-69
2024/02/23 01:20:57;;;;;;;0.73;0.73;;;4.80;99.90;;;;;;5113003;28;20187;-69
2024/02/23 01:23:23;;;;;;;0.80;0.80;;;4.80;99.90;;;;;;5114720;28;20286;-69
2024/02/23 01:25:48;;;;;;;0.70;0.70;;;4.80;99.90;;;;;;5116018;28;20614;-69
2024/02/23 01:28:14;;;;;;;1.23;1.08;;;4.70;99.90;;;;;;5101347;28;20235;-69
2024/02/23 01:30:40;;;;;;;0.80;0.80;;;4.70;99.90;;;;;;5095407;28;20230;-68
2024/02/23 01:33:05;;;;;;;0.70;0.70;;;4.70;99.90;;;;;;5094236;28;20196;-68
2024/02/23 01:35:31;;;;;;;0.80;0.80;;;4.70;99.90;;;;;;5095334;28;20195;-69
2024/02/23 01:37:56;;;;;;;0.43;0.43;;;4.70;99.90;;;;;;5093986;28;20212;-69
2024/02/23 01:40:22;;;;;;;0.60;0.60;;;4.80;99.90;;;;;;5114273;28;20191;-75
2024/02/23 01:42:48;;;;;;;1.23;1.00;;;4.80;99.90;;;;;;5115754;28;20275;-76
2024/02/23 01:45:13;;;;;;;0.60;0.60;;;4.80;99.90;;;;;;5114430;28;20191;-76
2024/02/23 01:47:39;;;;;;;0.70;0.70;;;4.80;99.90;;;;;;5114283;28;21237;-76
2024/02/23 01:50:07;;;;;;;0.60;0.60;;;4.80;99.90;;;;;;5115666;28;20313;-76
2024/02/23 01:52:33;;;;;;;0.73;0.70;;;4.80;99.90;;;;;;5114138;28;20203;-75
2024/02/23 01:55:00;;;;;;;0.60;0.60;;;4.70;99.90;;;;;;5115607;28;20226;-76
2024/02/23 01:57:27;;;;;;;0.50;0.50;;;4.80;99.90;;;;;;5114199;28;20218;-75
2024/02/23 01:59:53;;;;;;;0.57;0.57;;;4.70;99.90;;;;;;5115387;28;20191;-76
2024/02/23 02:02:22;;;;;;;1.00;1.00;;;4.80;99.90;;;;;;5115073;28;20623;-75
2024/02/23 02:04:48;;;;;;;2.17;1.65;;;4.80;99.90;;;;;;5115177;28;20294;-76
2024/02/23 02:07:13;;;;;;;0.65;0.65;;;4.70;99.90;;;;;;5114725;28;20270;-76
2024/02/23 02:09:39;;;;;;;0.60;0.60;;;4.80;99.90;;;;;;5113785;28;20203;-77
2024/02/23 02:12:05;;;;;;;0.90;0.90;;;4.70;99.90;;;;;;5115227;28;20196;-76
2024/02/23 02:14:33;;;;;;;0.70;0.70;;;4.80;99.90;;;;;;5101378;28;20235;-76
2024/02/23 02:16:58;;;;;;;0.90;0.90;;;4.70;99.90;;;;;;5094641;28;20210;-76
2024/02/23 02:19:24;;;;;;;0.70;0.70;;;4.70;99.90;;;;;;5075697;28;20613;-76
2024/02/23 02:21:49;;;;;;;0.60;0.60;;;4.80;99.90;;;;;;5094230;28;20253;-75
2024/02/23 02:24:15;;;;;;;1.20;1.10;;;4.80;99.90;;;;;;5076107;28;20265;-76
2024/02/23 02:26:42;;;;;;;0.73;0.73;;;4.90;99.90;;;;;;5094464;28;20232;-75
2024/02/23 02:29:08;;;;;;;0.80;0.80;;;4.90;99.90;;;;;;5093744;28;20184;-75
2024/02/23 02:31:36;;;;;;;0.70;0.70;;;4.80;99.90;;;;;;5093798;28;20294;-75
2024/02/23 02:34:03;;;;;;;0.77;0.77;;;4.80;99.90;;;;;;5094398;28;20192;-75
2024/02/23 02:36:29;;;;;;;0.68;0.68;;;4.80;99.90;;;;;;5093949;28;20192;-75
2024/02/23 02:38:55;;;;;;;0.55;0.55;;;4.80;99.90;;;;;;5094190;28;20192;-76
2024/02/23 02:41:24;;;;;;;0.60;0.60;;;4.80;99.90;;;;;;5094053;28;20267;-75
2024/02/23 02:43:49;;;;;;;0.52;0.52;;;4.90;99.90;;;;;;5094017;28;20204;-76
2024/02/23 02:46:15;;;;;;;0.75;0.75;;;4.90;99.90;;;;;;5075954;28;20236;-76
2024/02/23 02:48:41;;;;;;;1.00;1.00;;;4.90;99.90;;;;;;5093970;28;20242;-79
2024/02/23 02:51:07;;;;;;;0.70;0.70;;;4.90;99.90;;;;;;5094000;28;20188;-78
2024/02/23 02:53:32;;;;;;;1.00;0.90;;;4.90;99.90;;;;;;5093821;28;20271;-80
2024/02/23 02:55:58;;;;;;;0.60;0.60;;;4.90;99.90;;;;;;5075712;28;20284;-79
2024/02/23 02:58:24;;;;;;;1.35;1.27;;;4.90;99.90;;;;;;5093686;28;20639;-79
2024/02/23 03:00:49;;;;;;;0.80;0.80;;;4.90;99.90;;;;;;5075733;28;20702;-80
2024/02/23 03:03:15;;;;;;;0.60;0.60;;;4.90;99.90;;;;;;5093911;28;20656;-78
2024/02/23 03:05:41;;;;;;;0.60;0.60;;;5.00;99.90;;;;;;5093528;28;20199;-80
2024/02/23 03:08:06;;;;;;;0.60;0.60;;;5.00;99.90;;;;;;5093525;28;20188;-80
2024/02/23 03:10:32;;;;;;;0.50;0.50;;;5.00;99.90;;;;;;5075391;28;20291;-80
2024/02/23 03:12:58;;;;;;;1.67;1.40;;;5.00;99.90;;;;;;5093837;28;20199;-80
2024/02/23 03:15:23;;;;;;;0.60;0.60;;;5.00;99.90;;;;;;5093450;28;20200;-80
2024/02/23 03:17:49;;;;;;;0.73;0.73;;;5.00;99.90;;;;;;5075067;28;20223;-80
2024/02/23 03:20:16;;;;;;;1.75;1.55;;;5.00;99.90;;;;;;5082981;28;20211;-80
2024/02/23 03:22:41;;;;;;;0.95;0.95;;;5.00;99.90;;;;;;5053984;28;20580;-80
2024/02/23 03:25:10;;;;;;;0.70;0.70;;;5.00;99.90;;;;;;5073225;28;20189;-80
2024/02/23 03:27:37;;;;;;;0.60;0.60;;;5.00;99.90;;;;;;5054976;28;20233;-80
2024/02/23 03:30:04;;;;;;;0.70;0.70;;;4.90;99.90;;;;;;5073044;28;20612;-80
2024/02/23 03:32:35;;;;;;;0.60;0.60;;;4.90;99.90;;;;;;5089782;28;20188;-80
2024/02/23 03:35:03;;;;;;;0.60;0.60;;;4.90;99.90;;;;;;5093235;28;20242;-80
2024/02/23 03:37:28;;;;;;;2.42;1.02;;;4.90;99.90;;;;;;5074624;28;20212;-80
2024/02/23 03:39:54;;;;;;;0.90;0.90;;;4.90;99.90;;;;;;5093221;28;20603;-79
2024/02/23 03:42:20;;;;;;;0.40;0.40;;;4.90;99.90;;;;;;5092964;28;20270;-77
2024/02/23 03:44:45;;;;;;;0.65;0.65;;;4.80;99.90;;;;;;5092364;28;20247;-79
2024/02/23 03:47:12;;;;;;;0.60;0.60;;;4.80;99.90;;;;;;5093030;28;20218;-80
2024/02/23 03:49:37;;;;;;;0.68;0.65;;;4.90;99.90;;;;;;5074646;28;20625;-79
2024/02/23 03:52:04;;;;;;;0.70;0.70;;;4.80;99.90;;;;;;5074880;28;20192;-80
2024/02/23 03:54:31;;;;;;;2.30;1.77;;;4.80;99.90;;;;;;5074621;28;20223;-80
2024/02/23 03:56:57;;;;;;;1.00;1.00;;;4.80;99.90;;;;;;5074701;28;20739;-79
2024/02/23 03:59:23;;;;;;;2.05;1.20;;;4.80;99.90;;;;;;5074594;28;20193;-70
2024/02/23 04:01:49;;;;;;;0.60;0.60;;;4.80;99.90;;;;;;5092031;28;20656;-69
2024/02/23 04:04:14;;;;;;;0.65;0.65;;;4.80;99.90;;;;;;5092468;28;20234;-68
2024/02/23 04:06:40;;;;;;;0.68;0.68;;;4.80;99.90;;;;;;5074527;28;20199;-70
2024/02/23 04:09:08;;;;;;;0.85;0.70;;;4.80;99.90;;;;;;5092664;28;20316;-70
2024/02/23 04:11:34;;;;;;;0.80;0.80;;;4.80;99.90;;;;;;5092603;28;20215;-69
2024/02/23 04:14:00;;;;;;;0.75;0.75;;;4.80;99.90;;;;;;5101520;28;20262;-69
2024/02/23 04:16:26;;;;;;;0.70;0.70;;;4.80;99.90;;;;;;5094167;28;20191;-69
2024/02/23 04:18:53;;;;;;;0.93;0.93;;;4.90;99.90;;;;;;5112770;28;20191;-70
2024/02/23 04:21:19;;;;;;;0.60;0.60;;;4.80;99.90;;;;;;5094544;28;20195;-70
2024/02/23 04:23:45;;;;;;;0.70;0.70;;;4.90;99.90;;;;;;5113004;28;20303;-69
2024/02/23 04:26:11;;;;;;;1.52;1.42;;;4.90;99.90;;;;;;5112845;28;20219;-70
2024/02/23 04:28:40;;;;;;;1.20;1.10;;;5.00;99.90;;;;;;5094188;28;20284;-69
2024/02/23 04:31:06;;;;;;;0.50;0.50;;;5.00;99.90;;;;;;5094603;28;20201;-71
2024/02/23 04:33:32;;;;;;;0.60;0.60;;;4.90;99.90;;;;;;5112697;28;20198;-69
2024/02/23 04:35:58;;;;;;;0.70;0.70;;;5.00;99.90;;;;;;5094572;28;20256;-70
2024/02/23 04:38:24;;;;;;;0.82;0.82;;;5.00;99.90;;;;;;5094189;28;20207;-69
2024/02/23 04:40:49;;;;;;;0.98;0.98;;;5.00;99.90;;;;;;5112747;28;20187;-68
2024/02/23 04:43:15;;;;;;;0.63;0.63;;;5.10;99.90;;;;;;5112709;28;20655;-69
2024/02/23 04:45:41;;;;;;;1.15;1.05;;;5.00;99.90;;;;;;5094273;28;20192;-68
2024/02/23 04:48:07;;;;;;;0.90;0.90;;;5.10;99.90;;;;;;5112426;28;20260;-69
2024/02/23 04:50:33;;;;;;;0.80;0.80;;;5.10;99.90;;;;;;5094597;28;20682;-69
2024/02/23 04:52:58;;;;;;;1.27;1.17;;;5.10;99.90;;;;;;5112594;28;20219;-69
2024/02/23 04:55:24;;;;;;;0.50;0.50;;;5.10;99.90;;;;;;5114105;28;20196;-69
2024/02/23 04:57:50;;;;;;;0.70;0.70;;;5.10;99.90;;;;;;5116806;28;20209;-68
2024/02/23 05:00:15;;;;;;;0.63;0.63;;;5.10;99.90;;;;;;5116432;28;20190;-68
2024/02/23 05:02:41;;;;;;;0.60;0.60;;;5.10;99.90;;;;;;5116198;28;20308;-69
2024/02/23 05:05:07;;;;;;;0.55;0.55;;;5.10;99.90;;;;;;5116389;28;20196;-69
2024/02/23 05:07:34;;;;;;;0.90;0.90;;;5.10;99.90;;;;;;5116094;28;20188;-68
2024/02/23 05:10:00;;;;;;;0.73;0.73;;;5.20;99.90;;;;;;5116397;28;20300;-68
2024/02/23 05:12:26;;;;;;;0.80;0.80;;;5.20;99.90;;;;;;5097444;28;20750;-68
2024/02/23 05:14:51;;;;;;;0.70;0.70;;;5.20;99.90;;;;;;5099812;28;20311;-69
2024/02/23 05:17:17;;;;;;;1.40;1.30;;;5.20;99.90;;;;;;5095738;28;20279;-68
2024/02/23 05:19:43;;;;;;;0.80;0.80;;;5.30;99.90;;;;;;5077297;28;20199;-70
2024/02/23 05:22:08;;;;;;;0.60;0.60;;;5.20;99.90;;;;;;5095692;28;20184;-68
2024/02/23 05:24:34;;;;;;;1.00;1.00;;;5.20;99.90;;;;;;5095878;28;20208;-68
2024/02/23 05:27:02;;;;;;;0.77;0.77;;;5.30;99.90;;;;;;5077441;28;20201;-68
2024/02/23 05:29:28;;;;;;;0.90;0.90;;;5.30;99.90;;;;;;5095285;28;20191;-68
2024/02/23 05:31:54;;;;;;;0.88;0.88;;;5.30;99.90;;;;;;5095474;28;20200;-68
2024/02/23 05:34:20;;;;;;;0.60;0.60;;;5.30;99.90;;;;;;5095386;28;20246;-68
2024/02/23 05:36:46;;;;;;;0.73;0.73;;;5.40;99.90;;;;;;5077092;28;20208;-68
2024/02/23 05:39:12;;;;;;;0.70;0.70;;;5.40;99.90;;;;;;5077276;28;20226;-68
2024/02/23 05:41:38;;;;;;;0.50;0.50;;;5.40;99.90;;;;;;5095098;28;20203;-68
2024/02/23 05:44:05;;;;;;;0.68;0.68;;;5.40;99.90;;;;;;5095309;28;20188;-67
2024/02/23 05:46:35;;;;;;;0.75;0.75;;;5.40;99.90;;;;;;5076882;28;20789;-68
2024/02/23 05:49:01;;;;;;;0.70;0.70;;;5.50;99.90;;;;;;5095125;28;20195;-67
2024/02/23 05:51:31;;;;;;;0.60;0.60;;;5.50;99.90;;;;;;5076821;28;20286;-68
2024/02/23 05:53:57;;;;;;;0.70;0.70;;;5.50;99.90;;;;;;5095099;28;20567;-68
2024/02/23 05:56:24;;;;;;;0.70;0.70;;;5.60;99.90;;;;;;5094843;28;20559;-68
2024/02/23 05:58:51;;;;;;;0.70;0.70;;;5.60;99.90;;;;;;5095008;28;20589;-67
2024/02/23 06:01:17;;;;;;;0.63;0.63;;;5.70;99.90;;;;;;5076653;28;20192;-68
2024/02/23 06:03:44;;;;;;;1.55;1.45;;;5.60;99.90;;;;;;5076653;28;20287;-68
2024/02/23 06:06:10;;;;;;;0.73;0.73;;;5.70;99.90;;;;;;5094377;28;20281;-68
2024/02/23 06:08:36;;;;;;;0.70;0.70;;;5.70;99.90;;;;;;5075862;28;20192;-68
2024/02/23 06:11:03;;;;;;;0.60;0.60;;;5.60;99.90;;;;;;5094752;28;20192;-67
2024/02/23 06:13:30;;;;;;;0.70;0.70;;;5.80;99.90;;;;;;5094435;28;20269;-67
2024/02/23 06:15:55;;;;;;;0.82;0.82;;;5.80;99.90;;;;;;5076592;28;20204;-68
2024/02/23 06:18:21;;;;;;;0.70;0.70;;;5.70;99.90;;;;;;5094502;28;20299;-69
2024/02/23 06:20:47;;;;;;;0.60;0.60;;;5.80;99.90;;;;;;5094376;28;20192;-68
2024/02/23 06:23:13;;;;;;;0.85;0.85;;;5.70;99.90;;;;;;5094581;28;20601;-69
2024/02/23 06:25:39;;;;;;;0.68;0.68;;;5.60;99.90;;;;;;5094339;28;20196;-69
2024/02/23 06:28:06;;;;;;;0.52;0.52;;;5.70;99.90;;;;;;5094382;28;20200;-69
2024/02/23 06:30:32;;;;;;;0.65;0.65;;;5.80;99.90;;;;;;5094229;28;20192;-69
2024/02/23 06:32:57;;;;;;;0.65;0.65;;;5.80;99.90;;;;;;5076092;28;20720;-69
2024/02/23 06:35:23;;;;;;;0.80;0.80;;;5.80;99.90;;;;;;5075956;28;20200;-69
2024/02/23 06:37:48;;;;;;;0.65;0.65;;;5.90;99.90;;;;;;5094105;28;20228;-68
2024/02/23 06:40:14;;;;;;;0.90;0.90;;;5.90;99.90;;;;;;5094270;28;20203;-68
2024/02/23 06:42:40;;;;;;;0.63;0.63;;;5.90;99.90;;;;;;5093956;28;20184;-69
2024/02/23 06:45:07;;;;;;;0.60;0.60;;;5.80;99.90;;;;;;5094097;28;20196;-69
2024/02/23 06:47:33;;;;;;;0.70;0.70;;;5.80;99.90;;;;;;5093817;28;20191;-69
2024/02/23 06:49:59;;;;;;;1.25;1.15;;;5.90;99.90;;;;;;5093253;28;20830;-69
2024/02/23 06:52:26;;;;;;;0.50;0.50;;;6.00;99.90;;;;;;5093868;28;20196;-69
2024/02/23 06:54:51;;;;;;;0.90;0.90;;;5.90;99.90;;;;;;5075723;28;20196;-69
2024/02/23 06:57:18;;;;;;;0.60;0.60;;;6.00;99.90;;;;;;5093863;28;20702;-69
2024/02/23 06:59:43;;;;;;;0.70;0.70;;;6.00;99.90;;;;;;5093604;28;20189;-69
2024/02/23 07:02:09;;;;;;;0.60;0.60;;;6.00;99.90;;;;;;5093818;28;20683;-69
2024/02/23 07:04:35;;;;;;;2.35;1.20;;;6.20;99.90;;;;;;5092910;28;20732;-68
2024/02/23 07:07:07;;;;;;;0.50;0.50;;;6.30;99.90;;;;;;5093579;28;20223;-69
2024/02/23 07:09:33;;;;;;;0.60;0.60;;;6.30;99.90;;;;;;5093630;28;20191;-70
2024/02/23 07:11:58;;;;;;;0.70;0.70;;;6.20;99.90;;;;;;5093959;28;20305;-69
2024/02/23 07:14:24;;;;;;;0.60;0.60;;;6.30;99.90;;;;;;5087429;28;20239;-70
2024/02/23 07:16:51;;;;;;;0.80;0.80;;;6.30;99.90;;;;;;5084076;28;20208;-69
2024/02/23 07:19:16;;;;;;;0.50;0.50;;;6.50;99.90;;;;;;5075154;28;20283;-69
2024/02/23 07:21:42;;;;;;;0.70;0.70;;;6.40;99.90;;;;;;5074961;28;20279;-69
2024/02/23 07:24:08;;;;;;;0.85;0.85;;;6.50;99.90;;;;;;5093689;28;20192;-68
2024/02/23 07:26:36;;;;;;;0.50;0.50;;;6.50;99.90;;;;;;5093156;28;20196;-69
2024/02/23 07:29:02;;;;;;;1.33;1.23;;;6.60;99.90;;;;;;5075423;28;20647;-80
2024/02/23 07:31:27;;;;;;;0.60;0.60;;;6.70;99.90;;;;;;5075033;28;20203;-78
2024/02/23 07:33:53;;;;;;;0.70;0.70;;;6.70;99.90;;;;;;5075106;28;20282;-78
2024/02/23 07:36:19;;;;;;;0.60;0.60;;;6.60;99.90;;;;;;5075088;28;20556;-78
2024/02/23 07:38:44;;;;;;;0.80;0.80;;;6.60;99.90;;;;;;5093058;28;20655;-76
2024/02/23 07:41:14;;;;;;;1.23;1.13;;;6.40;99.90;;;;;;5093149;28;20184;-77
2024/02/23 07:43:40;;;;;;;0.50;0.50;;;6.40;99.90;;;;;;5074702;28;20219;-77
2024/02/23 07:46:08;;;;;;;0.68;0.68;;;6.30;99.90;;;;;;5093149;28;20602;-78
2024/02/23 07:48:35;;;;;;;0.60;0.60;;;6.40;99.90;;;;;;5074681;28;20203;-76
2024/02/23 07:51:02;;;;;;;0.80;0.80;;;6.40;99.90;;;;;;5092928;28;20245;-77
2024/02/23 07:53:27;;;;;;;0.70;0.70;;;6.30;99.90;;;;;;5092882;28;20269;-77
2024/02/23 07:55:53;;;;;;;0.80;0.80;;;6.20;99.90;;;;;;5092909;28;20219;-78
2024/02/23 07:58:19;;;;;;;0.65;0.65;;;6.10;99.90;;;;;;5092677;28;20226;-76
2024/02/23 08:00:44;;;;;;;0.65;0.65;;;6.00;99.90;;;;;;5096205;28;20198;-76
2024/02/23 08:03:10;;;;;;;0.80;0.80;;;5.80;99.90;;;;;;5094839;28;20196;-80
2024/02/23 08:05:36;;;;;;;0.60;0.60;;;5.70;99.90;;;;;;5113258;28;20628;-79
2024/02/23 08:08:02;;;;;;;0.50;0.50;;;5.60;99.90;;;;;;5112945;28;20190;-78
2024/02/23 08:10:28;;;;;;;0.50;0.50;;;5.60;99.90;;;;;;5113025;28;20202;-81
2024/02/23 08:12:53;;;;;;;0.60;0.60;;;5.50;99.90;;;;;;5094687;28;20191;-77
2024/02/23 08:15:20;;;;;;;0.70;0.70;;;5.50;99.90;;;;;;5092856;28;20629;-78
2024/02/23 08:17:46;;;;;;;0.80;0.80;;;5.60;99.90;;;;;;5092491;28;20215;-78
2024/02/23 08:20:12;;;;;;;0.63;0.63;;;5.60;99.90;;;;;;5074315;28;20188;-78
2024/02/23 08:22:37;;;;;;;0.80;0.80;;;5.50;99.90;;;;;;5092426;28;20605;-81
2024/02/23 08:25:03;;;;;;;0.80;0.80;;;5.50;99.90;;;;;;5092753;28;20675;-79
2024/02/23 08:27:29;;;;;;;0.80;0.80;;;5.30;99.90;;;;;;5092368;28;20188;-76
2024/02/23 08:29:55;;;;;;;0.60;0.60;;;5.20;99.90;;;;;;5075260;28;20200;-75
2024/02/23 08:32:21;;;;;;;0.70;0.70;;;5.10;99.90;;;;;;5096551;28;20249;-79
2024/02/23 08:34:46;;;;;;;0.90;0.90;;;5.00;99.90;;;;;;5096617;28;20230;-78
2024/02/23 08:37:12;;;;;;;0.70;0.70;;;5.00;99.90;;;;;;5078298;28;20207;-74
2024/02/23 08:39:38;;;;;;;0.80;0.80;;;5.20;99.90;;;;;;5096539;28;20196;-75
2024/02/23 08:42:04;;;;;;;0.80;0.80;;;5.30;99.90;;;;;;5096425;28;20192;-76
2024/02/23 08:44:29;;;;;;;0.70;0.70;;;5.30;99.90;;;;;;5078132;28;20196;-73
2024/02/23 08:46:55;;;;;;;0.77;0.77;;;5.30;99.90;;;;;;5097064;28;20188;-76
2024/02/23 08:49:20;;;;;;;0.80;0.80;;;5.30;99.90;;;;;;5096152;28;20329;-76
2024/02/23 08:51:46;;;;;;;0.80;0.80;;;5.30;99.90;;;;;;5096249;28;20275;-76
2024/02/23 08:54:12;;;;;;;0.60;0.60;;;5.30;99.90;;;;;;5096343;28;20277;-75
2024/02/23 08:56:42;;;;;;;0.70;0.70;;;5.20;99.90;;;;;;5095444;28;20196;-76
2024/02/23 08:59:12;;;;;;;0.80;0.80;;;5.20;99.90;;;;;;5096082;28;20191;-75
2024/02/23 09:01:37;;;;;;;0.70;0.70;;;5.20;99.90;;;;;;5077737;28;20220;-77
2024/02/23 09:04:03;;;;;;;0.70;0.70;;;5.20;99.90;;;;;;5077902;28;20659;-76
2024/02/23 09:06:29;;;;;;;0.63;0.63;;;5.20;99.90;;;;;;5095783;28;20188;-76
2024/02/23 09:08:54;;;;;;;0.60;0.60;;;5.20;99.90;;;;;;5077587;28;20641;-76
2024/02/23 09:11:20;;;;;;;0.60;0.60;;;5.10;99.90;;;;;;5077587;28;20193;-76
2024/02/23 09:13:46;;;;;;;0.60;0.60;;;5.10;99.90;;;;;;5095831;28;20235;-74
2024/02/23 09:16:11;;;;;;;0.55;0.55;;;5.00;99.90;;;;;;5077701;28;20239;-75
2024/02/23 09:18:37;;;;;;;0.70;0.70;;;5.00;99.90;;;;;;5095816;28;20208;-76
2024/02/23 09:21:03;;;;;;;0.55;0.55;;;5.10;99.90;;;;;;5077416;28;20192;-76
2024/02/23 09:23:29;;;;;;;0.70;0.70;;;5.10;99.90;;;;;;5095655;28;20188;-76
2024/02/23 09:25:54;;;;;;;0.50;0.50;;;5.10;99.90;;;;;;5095693;28;20729;-76
2024/02/23 09:28:20;;;;;;;0.70;0.70;;;5.10;99.90;;;;;;5077298;28;20203;-75
2024/02/23 09:30:46;;;;;;;0.57;0.57;;;5.10;99.90;;;;;;5077451;28;20200;-76
2024/02/23 09:33:12;;;;;;;0.70;0.70;;;5.20;99.90;;;;;;5095656;28;20192;-76
2024/02/23 09:35:38;;;;;;;0.60;0.60;;;5.10;99.90;;;;;;5095396;28;20211;-76
2024/02/23 09:38:04;;;;;;;0.60;0.60;;;5.10;99.90;;;;;;5095340;28;20204;-76
2024/02/23 09:40:29;;;;;;;0.80;0.80;;;5.10;99.90;;;;;;5095420;28;20321;-75
2024/02/23 09:42:57;;;;;;;0.68;0.68;;;5.10;99.90;;;;;;5075939;28;20287;-75
2024/02/23 09:45:29;;;;;;;0.50;0.50;;;5.10;99.90;;;;;;5095168;28;20196;-74
2024/02/23 09:47:57;;;;;;;0.60;0.60;;;5.10;99.90;;;;;;5095254;28;20219;-76
2024/02/23 09:50:23;;;;;;;0.60;0.60;;;5.00;99.90;;;;;;5095264;28;20200;-79
2024/02/23 09:52:50;;;;;;;0.60;0.60;;;5.00;99.90;;;;;;5094871;28;20661;-78
2024/02/23 09:55:21;;;;;;;0.60;0.60;;;5.00;99.90;;;;;;5077110;28;20209;-80
2024/02/23 09:57:48;;;;;;;0.60;0.60;;;4.90;99.90;;;;;;5076841;28;20314;-80
2024/02/23 10:00:17;;;;;;;0.60;0.60;;;4.90;99.90;;;;;;5095087;28;20644;-76
2024/02/23 10:02:43;;;;;;;0.52;0.52;;;4.90;99.90;;;;;;5077804;28;20188;-79
2024/02/23 10:05:10;;;;;;;0.75;0.75;;;4.80;99.90;;;;;;5094974;28;20196;-80
2024/02/23 10:07:36;;;;;;;0.70;0.70;;;4.70;99.90;;;;;;5076443;28;20298;-79
2024/02/23 10:10:03;;;;;;;0.70;0.70;;;4.70;99.90;;;;;;5077019;28;20283;-79
2024/02/23 10:12:28;;;;;;;0.65;0.65;;;4.60;99.90;;;;;;5094595;28;20231;-79
2024/02/23 10:14:54;;;;;;;0.60;0.60;;;4.50;99.90;;;;;;5111262;28;20691;-79
2024/02/23 10:17:20;;;;;;;0.57;0.57;;;4.40;99.90;;;;;;5096937;28;20207;-75
2024/02/23 10:19:46;;;;;;;0.60;0.60;;;4.40;99.90;;;;;;5096877;28;20667;-79
2024/02/23 10:22:11;;;;;;;0.70;0.70;;;4.40;99.90;;;;;;5115015;28;20199;-78
2024/02/23 10:24:37;;;;;;;0.65;0.65;;;4.30;99.90;;;;;;5096854;28;20199;-78
2024/02/23 10:27:03;;;;;;;0.60;0.60;;;4.40;99.90;;;;;;5114962;28;20671;-80
2024/02/23 10:29:29;;;;;;;0.52;0.52;;;4.40;99.90;;;;;;5114811;28;20188;-79
2024/02/23 10:31:57;;;;;;;0.70;0.70;;;4.40;99.90;;;;;;5115164;28;20191;-77
2024/02/23 10:34:24;;;;;;;0.70;0.70;;;4.40;99.90;;;;;;5096452;28;20670;-78
2024/02/23 10:36:50;;;;;;;0.50;0.50;;;4.40;99.90;;;;;;5116055;28;20196;-76
2024/02/23 10:39:20;;;;;;;0.55;0.55;;;4.50;99.90;;;;;;5117247;28;20648;-81
2024/02/23 10:41:53;;;;;;;0.68;0.68;;;4.50;99.90;;;;;;5115336;28;20191;-74
2024/02/23 10:44:18;;;;;;;0.60;0.60;;;4.50;99.90;;;;;;5114498;28;20179;-74
2024/02/23 10:46:45;;;;;;;0.60;0.60;;;4.50;99.90;;;;;;5096208;28;20230;-76
2024/02/23 10:49:14;;;;;;;0.60;0.60;;;4.60;99.90;;;;;;5113857;28;20575;-75
2024/02/23 10:51:41;;;;;;;0.60;0.60;;;4.60;99.90;;;;;;5114163;28;20199;-73
2024/02/23 10:54:07;;;;;;;0.47;0.47;;;4.60;99.90;;;;;;5114007;28;20192;-73
2024/02/23 10:56:32;;;;;;;0.65;0.65;;;4.60;99.90;;;;;;5095939;28;20651;-75
2024/02/23 10:58:58;;;;;;;0.70;0.70;;;4.60;99.90;;;;;;5114275;28;20204;-75
2024/02/23 11:01:25;;;;;;;0.60;0.60;;;4.60;99.90;;;;;;5113938;28;20256;-75
2024/02/23 11:03:53;;;;;;;0.60;0.60;;;4.70;99.90;;;;;;5114107;28;20195;-75
2024/02/23 11:06:21;;;;;;;0.60;0.60;;;4.80;99.90;;;;;;5113983;28;20559;-75
2024/02/23 11:08:48;;;;;;;0.60;0.60;;;4.70;99.90;;;;;;5113975;28;20714;-75
2024/02/23 11:11:16;;;;;;;0.60;0.60;;;4.70;99.90;;;;;;5114048;28;20532;-76
2024/02/23 11:13:44;;;;;;;0.60;0.60;;;4.70;99.90;;;;;;5107366;28;20356;-76
2024/02/23 11:16:10;;;;;;;0.68;0.68;;;4.70;99.90;;;;;;5075551;28;20196;-75
2024/02/23 11:18:37;;;;;;;0.60;0.60;;;4.70;99.90;;;;;;5093223;28;20235;-78
2024/02/23 11:21:07;;;;;;;0.50;0.50;;;4.70;99.90;;;;;;5093454;28;20184;-73
2024/02/23 11:23:43;;;;;;;0.68;0.68;;;4.70;99.90;;;;;;5093362;28;20192;-76
2024/02/23 11:26:12;;;;;;;0.55;0.55;;;4.90;99.90;;;;;;5093383;28;20545;-76
2024/02/23 11:28:47;;;;;;;2.88;0.73;;;5.00;99.90;;;;;;5093086;28;20203;-75
2024/02/23 11:31:25;;;;;;;0.60;0.60;;;5.10;99.90;;;;;;5093322;28;20215;-74
2024/02/23 11:33:53;;;;;;;0.60;0.60;;;5.10;99.90;;;;;;5093256;28;20188;-74
2024/02/23 11:36:29;;;;;;;2.28;1.25;;;5.00;99.90;;;;;;5093188;28;20192;-75
2024/02/23 11:38:57;;;;;;;0.73;0.70;;;5.10;99.90;;;;;;5074771;28;20246;-74
2024/02/23 11:41:24;;;;;;;0.60;0.60;;;5.00;99.90;;;;;;5074835;28;20196;-76
2024/02/23 11:44:00;;;;;;;0.60;0.60;;;5.00;99.90;;;;;;5093064;28;20669;-75
2024/02/23 11:46:26;;;;;;;0.50;0.50;;;5.00;99.90;;;;;;5082986;28;20322;-74
2024/02/23 11:48:55;;;;;;;0.70;0.70;;;5.00;99.90;;;;;;5072686;28;20220;-74
2024/02/23 11:51:22;;;;;;;0.50;0.50;;;5.10;99.90;;;;;;5072499;28;20196;-73
2024/02/23 11:53:48;;;;;;;0.55;0.55;;;5.10;99.90;;;;;;5054989;28;20628;-73
2024/02/23 11:56:14;;;;;;;0.90;0.90;;;5.20;99.90;;;;;;5072705;28;20193;-74
2024/02/23 11:58:41;;;;;;;0.60;0.60;;;5.20;99.90;;;;;;5088581;28;20645;-73
2024/02/23 12:01:07;;;;;;;0.60;0.60;;;5.20;99.90;;;;;;5092857;28;20680;-75
2024/02/23 12:03:33;;;;;;;0.50;0.50;;;5.40;99.90;;;;;;5074432;28;20222;-74
2024/02/23 12:06:00;;;;;;;0.50;0.50;;;5.40;99.90;;;;;;5073977;28;20615;-74
2024/02/23 12:08:27;;;;;;;0.70;0.70;;;5.50;99.90;;;;;;5074417;28;20192;-74
2024/02/23 12:10:55;;;;;;;0.60;0.60;;;5.30;99.90;;;;;;5092875;28;20192;-73
2024/02/23 12:13:22;;;;;;;0.60;0.60;;;5.20;99.90;;;;;;5092458;28;20231;-74
2024/02/23 12:15:48;;;;;;;0.70;0.70;;;5.20;99.90;;;;;;5092690;28;20196;-74
2024/02/23 12:18:14;;;;;;;0.57;0.57;;;5.30;99.90;;;;;;5074458;28;20204;-74
2024/02/23 12:20:40;;;;;;;0.70;0.70;;;5.40;99.90;;;;;;5092466;28;20630;-75
2024/02/23 12:23:07;;;;;;;0.70;0.70;;;5.50;99.90;;;;;;5092730;28;20204;-74
2024/02/23 12:25:33;;;;;;;0.57;0.57;;;5.50;99.90;;;;;;5092450;28;20273;-74
2024/02/23 12:28:00;;;;;;;0.70;0.70;;;5.50;99.90;;;;;;5074351;28;20241;-74
2024/02/23 12:30:28;;;;;;;0.70;0.70;;;5.40;99.90;;;;;;5074231;28;20664;-75
2024/02/23 12:33:04;;;;;;;0.60;0.60;;;5.40;99.90;;;;;;5092495;28;20188;-74
2024/02/23 12:35:30;;;;;;;0.80;0.80;;;5.30;99.90;;;;;;5074164;28;20203;-73
2024/02/23 12:37:55;;;;;;;0.60;0.60;;;5.20;99.90;;;;;;5074167;28;20230;-74
2024/02/23 12:40:21;;;;;;;0.63;0.63;;;5.10;99.90;;;;;;5092359;28;20220;-73
2024/02/23 12:42:48;;;;;;;5.97;1.80;;;5.10;99.90;;;;;;5081643;28;20282;-73
2024/02/23 12:45:14;;;;;;;0.70;0.70;;;5.20;99.90;;;;;;5072254;28;20185;-74
2024/02/23 12:47:40;;;;;;;0.70;0.70;;;5.20;99.90;;;;;;5072013;28;20188;-73
2024/02/23 12:50:07;;;;;;;0.40;0.40;;;5.30;99.90;;;;;;5072202;28;20196;-74
2024/02/23 12:52:34;;;;;;;0.65;0.65;;;5.50;99.90;;;;;;5072301;28;20556;-74
2024/02/23 12:55:00;;;;;;;0.40;0.40;;;5.50;99.90;;;;;;5088796;28;20199;-74